sensor_id;sensor_type;location;lat;lon;timestamp;pressure;altitude;pressure_sealevel;temperature;humidity
6096;BME280;25081;42.698;23.298;2022-09-27T00:00:15;94340.00;;;15.15;92.42
6096;BME280;25081;42.698;23.298;2022-09-27T00:02:26;94335.97;;;15.15;92.47
6096;BME280;25081;42.698;23.298;2022-09-27T00:04:36;94337.84;;;15.25;92.71
6096;BME280;25081;42.698;23.298;2022-09-27T00:06:47;94339.16;;;15.33;92.28
6096;BME280;25081;42.698;23.298;2022-09-27T00:08:58;94337.83;;;15.35;91.97
6096;BME280;25081;42.698;23.298;2022-09-27T00:11:10;94338.63;;;15.31;92.02
6096;BME280;25081;42.698;23.298;2022-09-27T00:13:20;94328.69;;;15.31;91.66
6096;BME280;25081;42.698;23.298;2022-09-27T00:15:31;94326.83;;;15.11;92.08
6096;BME280;25081;42.698;23.298;2022-09-27T00:17:41;94337.29;;;15.13;92.45
6096;BME280;25081;42.698;23.298;2022-09-27T00:19:52;94346.16;;;15.08;92.07
6096;BME280;25081;42.698;23.298;2022-09-27T00:22:02;94355.28;;;15.12;92.28
6096;BME280;25081;42.698;23.298;2022-09-27T00:24:14;94364.95;;;15.18;92.21
6096;BME280;25081;42.698;23.298;2022-09-27T00:26:24;94363.08;;;15.19;92.44
6096;BME280;25081;42.698;23.298;2022-09-27T00:28:34;94369.23;;;15.22;92.94
6096;BME280;25081;42.698;23.298;2022-09-27T00:30:45;94361.20;;;15.27;92.63
6096;BME280;25081;42.698;23.298;2022-09-27T00:32:56;94355.27;;;15.23;92.71
6096;BME280;25081;42.698;23.298;2022-09-27T00:35:07;94360.40;;;15.16;92.74
6096;BME280;25081;42.698;23.298;2022-09-27T00:37:18;94351.54;;;15.16;93.05
6096;BME280;25081;42.698;23.298;2022-09-27T00:39:29;94356.36;;;15.19;93.61
6096;BME280;25081;42.698;23.298;2022-09-27T00:41:40;94348.84;;;15.29;93.17
6096;BME280;25081;42.698;23.298;2022-09-27T00:43:51;94339.71;;;15.20;92.57
6096;BME280;25081;42.698;23.298;2022-09-27T00:46:01;94341.05;;;15.04;92.75
6096;BME280;25081;42.698;23.298;2022-09-27T00:48:11;94325.47;;;14.86;92.39
6096;BME280;25081;42.698;23.298;2022-09-27T00:50:27;94319.30;;;14.73;92.91
6096;BME280;25081;42.698;23.298;2022-09-27T00:52:40;94302.40;;;14.59;93.79
6096;BME280;25081;42.698;23.298;2022-09-27T00:54:50;94307.50;;;14.58;93.23
6096;BME280;25081;42.698;23.298;2022-09-27T00:57:00;94308.02;;;14.55;93.97
6096;BME280;25081;42.698;23.298;2022-09-27T00:59:12;94301.00;;;14.42;94.36
6096;BME280;25081;42.698;23.298;2022-09-27T01:01:21;94308.24;;;14.39;94.59
6096;BME280;25081;42.698;23.298;2022-09-27T01:03:35;94309.58;;;14.41;95.02
6096;BME280;25081;42.698;23.298;2022-09-27T01:05:44;94299.39;;;14.41;94.96
6096;BME280;25081;42.698;23.298;2022-09-27T01:07:55;94313.88;;;14.40;95.09
6096;BME280;25081;42.698;23.298;2022-09-27T01:10:07;94325.94;;;14.40;93.90
6096;BME280;25081;42.698;23.298;2022-09-27T01:12:19;94332.05;;;14.22;95.01
6096;BME280;25081;42.698;23.298;2022-09-27T01:14:40;94323.23;;;14.29;94.94
6096;BME280;25081;42.698;23.298;2022-09-27T01:16:52;94310.06;;;14.28;94.18
6096;BME280;25081;42.698;23.298;2022-09-27T01:19:04;94305.25;;;14.22;95.61
6096;BME280;25081;42.698;23.298;2022-09-27T01:21:25;94299.06;;;14.12;95.72
6096;BME280;25081;42.698;23.298;2022-09-27T01:26:27;94296.11;;;14.16;97.30
6096;BME280;25081;42.698;23.298;2022-09-27T01:28:42;94303.61;;;14.16;97.43
6096;BME280;25081;42.698;23.298;2022-09-27T01:30:53;94311.41;;;14.20;97.17
6096;BME280;25081;42.698;23.298;2022-09-27T01:35:38;94320.02;;;14.35;97.13
6096;BME280;25081;42.698;23.298;2022-09-27T01:37:49;94314.60;;;14.15;96.41
6096;BME280;25081;42.698;23.298;2022-09-27T01:39:59;94305.78;;;14.19;97.33
6096;BME280;25081;42.698;23.298;2022-09-27T01:42:11;94311.41;;;14.28;97.65
6096;BME280;25081;42.698;23.298;2022-09-27T01:44:23;94300.44;;;14.37;97.27
6096;BME280;25081;42.698;23.298;2022-09-27T01:46:34;94303.41;;;14.43;96.87
6096;BME280;25081;42.698;23.298;2022-09-27T01:48:45;94314.92;;;14.36;96.32
6096;BME280;25081;42.698;23.298;2022-09-27T01:50:57;94309.53;;;14.23;95.71
6096;BME280;25081;42.698;23.298;2022-09-27T01:53:07;94307.13;;;14.27;95.92
6096;BME280;25081;42.698;23.298;2022-09-27T01:55:18;94310.58;;;14.15;96.77
6096;BME280;25081;42.698;23.298;2022-09-27T01:57:31;94312.72;;;14.15;97.23
6096;BME280;25081;42.698;23.298;2022-09-27T01:59:42;94303.88;;;14.12;97.56
6096;BME280;25081;42.698;23.298;2022-09-27T02:01:52;94293.16;;;14.12;98.15
6096;BME280;25081;42.698;23.298;2022-09-27T02:04:03;94296.08;;;14.08;98.09
6096;BME280;25081;42.698;23.298;2022-09-27T02:06:13;94286.98;;;14.17;98.02
6096;BME280;25081;42.698;23.298;2022-09-27T02:08:27;94296.91;;;14.16;97.44
6096;BME280;25081;42.698;23.298;2022-09-27T02:10:37;94287.55;;;14.24;97.60
6096;BME280;25081;42.698;23.298;2022-09-27T02:12:51;94285.16;;;14.32;97.50
6096;BME280;25081;42.698;23.298;2022-09-27T02:15:00;94283.55;;;14.31;97.16
6096;BME280;25081;42.698;23.298;2022-09-27T02:17:12;94269.87;;;14.33;97.78
6096;BME280;25081;42.698;23.298;2022-09-27T02:19:26;94272.27;;;14.24;97.88
6096;BME280;25081;42.698;23.298;2022-09-27T02:21:37;94270.34;;;14.07;97.53
6096;BME280;25081;42.698;23.298;2022-09-27T02:23:49;94248.08;;;13.94;98.39
6096;BME280;25081;42.698;23.298;2022-09-27T02:26:00;94242.98;;;13.97;99.62
6096;BME280;25081;42.698;23.298;2022-09-27T02:28:15;94240.31;;;13.95;99.65
6096;BME280;25081;42.698;23.298;2022-09-27T02:30:21;94238.22;;;14.10;100.00
6096;BME280;25081;42.698;23.298;2022-09-27T02:32:32;94228.82;;;14.17;100.00
6096;BME280;25081;42.698;23.298;2022-09-27T02:34:43;94219.70;;;14.18;100.00
6096;BME280;25081;42.698;23.298;2022-09-27T02:36:54;94222.39;;;14.18;99.96
6096;BME280;25081;42.698;23.298;2022-09-27T02:39:05;94228.55;;;14.03;100.00
6096;BME280;25081;42.698;23.298;2022-09-27T02:41:16;94223.72;;;14.00;100.00
6096;BME280;25081;42.698;23.298;2022-09-27T02:43:28;94216.48;;;14.01;100.00
6096;BME280;25081;42.698;23.298;2022-09-27T02:45:39;94221.28;;;13.94;100.00
6096;BME280;25081;42.698;23.298;2022-09-27T02:48:02;94233.91;;;14.01;100.00
6096;BME280;25081;42.698;23.298;2022-09-27T02:50:32;94237.41;;;14.14;100.00
6096;BME280;25081;42.698;23.298;2022-09-27T02:52:44;94250.53;;;14.18;100.00
6096;BME280;25081;42.698;23.298;2022-09-27T02:54:55;94242.51;;;14.26;100.00
6096;BME280;25081;42.698;23.298;2022-09-27T02:57:10;94246.01;;;14.34;100.00
6096;BME280;25081;42.698;23.298;2022-09-27T02:59:19;94240.66;;;14.29;99.55
6096;BME280;25081;42.698;23.298;2022-09-27T03:01:32;94243.34;;;14.29;99.51
6096;BME280;25081;42.698;23.298;2022-09-27T03:03:44;94239.84;;;14.31;99.23
6096;BME280;25081;42.698;23.298;2022-09-27T03:05:53;94223.48;;;14.20;99.55
6096;BME280;25081;42.698;23.298;2022-09-27T03:08:03;94209.80;;;14.24;100.00
6096;BME280;25081;42.698;23.298;2022-09-27T03:10:17;94210.07;;;14.38;99.93
6096;BME280;25081;42.698;23.298;2022-09-27T03:12:28;94191.06;;;14.47;99.82
6096;BME280;25081;42.698;23.298;2022-09-27T03:14:38;94199.89;;;14.32;99.29
6096;BME280;25081;42.698;23.298;2022-09-27T03:16:49;94200.98;;;14.28;99.46
6096;BME280;25081;42.698;23.298;2022-09-27T03:19:00;94188.35;;;14.26;99.56
6096;BME280;25081;42.698;23.298;2022-09-27T03:21:11;94170.94;;;14.24;99.71
6096;BME280;25081;42.698;23.298;2022-09-27T03:23:21;94176.81;;;14.18;100.00
6096;BME280;25081;42.698;23.298;2022-09-27T03:25:32;94177.11;;;14.19;100.00
6096;BME280;25081;42.698;23.298;2022-09-27T03:27:43;94167.99;;;14.20;100.00
6096;BME280;25081;42.698;23.298;2022-09-27T03:29:53;94168.24;;;14.26;100.00
6096;BME280;25081;42.698;23.298;2022-09-27T03:32:04;94173.88;;;14.27;100.00
6096;BME280;25081;42.698;23.298;2022-09-27T03:34:15;94175.48;;;14.36;100.00
6096;BME280;25081;42.698;23.298;2022-09-27T03:36:25;94178.45;;;14.47;100.00
6096;BME280;25081;42.698;23.298;2022-09-27T03:38:37;94178.46;;;14.55;99.59
6096;BME280;25081;42.698;23.298;2022-09-27T03:40:47;94173.62;;;14.57;99.36
6096;BME280;25081;42.698;23.298;2022-09-27T03:42:58;94172.30;;;14.59;99.48
6096;BME280;25081;42.698;23.298;2022-09-27T03:45:10;94171.22;;;14.63;99.02
6096;BME280;25081;42.698;23.298;2022-09-27T03:49:46;94166.09;;;14.74;99.30
6096;BME280;25081;42.698;23.298;2022-09-27T03:51:56;94170.38;;;14.75;98.94
6096;BME280;25081;42.698;23.298;2022-09-27T03:54:07;94176.56;;;14.73;98.28
6096;BME280;25081;42.698;23.298;2022-09-27T03:56:18;94180.59;;;14.73;98.16
6096;BME280;25081;42.698;23.298;2022-09-27T03:58:29;94187.02;;;14.75;97.88
6096;BME280;25081;42.698;23.298;2022-09-27T04:00:39;94173.36;;;14.69;98.30
6096;BME280;25081;42.698;23.298;2022-09-27T04:02:50;94165.84;;;14.63;98.26
6096;BME280;25081;42.698;23.298;2022-09-27T04:05:01;94167.73;;;14.63;98.24
6096;BME280;25081;42.698;23.298;2022-09-27T04:07:11;94172.28;;;14.65;98.34
6096;BME280;25081;42.698;23.298;2022-09-27T04:09:22;94167.19;;;14.63;98.67
6096;BME280;25081;42.698;23.298;2022-09-27T04:11:33;94175.77;;;14.65;98.42
6096;BME280;25081;42.698;23.298;2022-09-27T04:13:43;94177.37;;;14.74;98.43
6096;BME280;25081;42.698;23.298;2022-09-27T04:15:54;94176.83;;;14.74;98.19
6096;BME280;25081;42.698;23.298;2022-09-27T04:18:05;94169.87;;;14.71;97.96
6096;BME280;25081;42.698;23.298;2022-09-27T04:20:16;94165.86;;;14.60;97.76
6096;BME280;25081;42.698;23.298;2022-09-27T04:22:26;94165.59;;;14.59;97.92
6096;BME280;25081;42.698;23.298;2022-09-27T04:24:37;94151.92;;;14.58;98.41
6096;BME280;25081;42.698;23.298;2022-09-27T04:26:48;94158.60;;;14.64;98.66
6096;BME280;25081;42.698;23.298;2022-09-27T04:28:58;94162.35;;;14.65;98.80
6096;BME280;25081;42.698;23.298;2022-09-27T04:31:09;94168.27;;;14.67;98.97
6096;BME280;25081;42.698;23.298;2022-09-27T04:33:20;94169.31;;;14.74;98.62
6096;BME280;25081;42.698;23.298;2022-09-27T04:35:30;94164.22;;;14.75;99.08
6096;BME280;25081;42.698;23.298;2022-09-27T04:40:35;94169.03;;;14.83;98.69
6096;BME280;25081;42.698;23.298;2022-09-27T04:42:45;94171.18;;;14.83;98.65
6096;BME280;25081;42.698;23.298;2022-09-27T04:44:56;94160.17;;;14.90;98.57
6096;BME280;25081;42.698;23.298;2022-09-27T04:47:06;94166.88;;;14.90;97.91
6096;BME280;25081;42.698;23.298;2022-09-27T04:49:17;94177.37;;;14.79;98.43
6096;BME280;25081;42.698;23.298;2022-09-27T04:51:28;94184.61;;;14.81;98.66
6096;BME280;25081;42.698;23.298;2022-09-27T04:53:39;94178.17;;;14.79;98.81
6096;BME280;25081;42.698;23.298;2022-09-27T04:55:51;94176.02;;;14.86;98.91
6096;BME280;25081;42.698;23.298;2022-09-27T04:58:02;94180.83;;;14.97;98.79
6096;BME280;25081;42.698;23.298;2022-09-27T05:00:14;94178.13;;;14.95;98.20
6096;BME280;25081;42.698;23.298;2022-09-27T05:02:25;94180.31;;;14.87;98.24
6096;BME280;25081;42.698;23.298;2022-09-27T05:04:35;94169.55;;;14.93;98.40
6096;BME280;25081;42.698;23.298;2022-09-27T05:06:46;94173.30;;;14.94;98.13
6096;BME280;25081;42.698;23.298;2022-09-27T05:08:57;94168.73;;;14.95;98.22
6096;BME280;25081;42.698;23.298;2022-09-27T05:11:08;94160.43;;;14.86;98.37
6096;BME280;25081;42.698;23.298;2022-09-27T05:13:18;94164.48;;;14.81;98.47
6096;BME280;25081;42.698;23.298;2022-09-27T05:15:29;94150.79;;;14.82;99.00
6096;BME280;25081;42.698;23.298;2022-09-27T05:17:40;94143.83;;;14.74;98.71
6096;BME280;25081;42.698;23.298;2022-09-27T05:19:50;94148.41;;;14.71;99.33
6096;BME280;25081;42.698;23.298;2022-09-27T05:22:01;94143.84;;;14.66;99.17
6096;BME280;25081;42.698;23.298;2022-09-27T05:24:12;94148.14;;;14.65;99.11
6096;BME280;25081;42.698;23.298;2022-09-27T05:26:23;94147.36;;;14.59;98.92
6096;BME280;25081;42.698;23.298;2022-09-27T05:28:33;94139.30;;;14.54;99.07
6096;BME280;25081;42.698;23.298;2022-09-27T05:30:44;94128.83;;;14.37;98.81
6096;BME280;25081;42.698;23.298;2022-09-27T05:32:55;94128.83;;;14.42;99.32
6096;BME280;25081;42.698;23.298;2022-09-27T05:35:07;94128.33;;;14.48;98.76
6096;BME280;25081;42.698;23.298;2022-09-27T05:37:17;94134.48;;;14.51;98.65
6096;BME280;25081;42.698;23.298;2022-09-27T05:39:28;94125.36;;;14.47;98.08
6096;BME280;25081;42.698;23.298;2022-09-27T05:41:39;94136.35;;;14.40;98.51
6096;BME280;25081;42.698;23.298;2022-09-27T05:43:50;94150.83;;;14.42;98.66
6096;BME280;25081;42.698;23.298;2022-09-27T05:46:01;94154.58;;;14.33;98.30
6096;BME280;25081;42.698;23.298;2022-09-27T05:48:12;94146.53;;;14.33;98.61
6096;BME280;25081;42.698;23.298;2022-09-27T05:50:23;94139.31;;;14.39;98.18
6096;BME280;25081;42.698;23.298;2022-09-27T05:52:33;94140.64;;;14.39;98.12
6096;BME280;25081;42.698;23.298;2022-09-27T05:54:44;94146.81;;;14.39;97.91
6096;BME280;25081;42.698;23.298;2022-09-27T05:56:55;94145.19;;;14.43;98.33
6096;BME280;25081;42.698;23.298;2022-09-27T05:59:06;94156.48;;;14.50;98.40
6096;BME280;25081;42.698;23.298;2022-09-27T06:01:17;94161.02;;;14.55;97.76
6096;BME280;25081;42.698;23.298;2022-09-27T06:03:28;94158.62;;;14.58;98.18
6096;BME280;25081;42.698;23.298;2022-09-27T06:05:39;94158.62;;;14.53;97.49
6096;BME280;25081;42.698;23.298;2022-09-27T06:07:49;94155.94;;;14.46;98.05
6096;BME280;25081;42.698;23.298;2022-09-27T06:10:00;94156.20;;;14.54;98.14
6096;BME280;25081;42.698;23.298;2022-09-27T06:12:10;94165.59;;;14.52;97.38
6096;BME280;25081;42.698;23.298;2022-09-27T06:14:21;94160.75;;;14.31;97.97
6096;BME280;25081;42.698;23.298;2022-09-27T06:16:32;94158.33;;;14.24;98.32
6096;BME280;25081;42.698;23.298;2022-09-27T06:18:43;94162.90;;;14.31;98.19
6096;BME280;25081;42.698;23.298;2022-09-27T06:20:54;94168.52;;;14.66;98.08
6096;BME280;25081;42.698;23.298;2022-09-27T06:23:07;94162.59;;;14.89;97.05
6096;BME280;25081;42.698;23.298;2022-09-27T06:25:17;94153.14;;;15.09;96.10
6096;BME280;25081;42.698;23.298;2022-09-27T06:27:27;94162.47;;;15.25;95.14
6096;BME280;25081;42.698;23.298;2022-09-27T06:29:38;94151.08;;;15.51;94.86
6096;BME280;25081;42.698;23.298;2022-09-27T06:31:49;94140.87;;;15.55;93.79
6096;BME280;25081;42.698;23.298;2022-09-27T06:33:59;94135.99;;;15.60;93.64
6096;BME280;25081;42.698;23.298;2022-09-27T06:36:10;94145.16;;;15.56;93.75
6096;BME280;25081;42.698;23.298;2022-09-27T06:38:21;94158.07;;;15.54;93.90
6096;BME280;25081;42.698;23.298;2022-09-27T06:40:32;94159.97;;;15.49;92.65
6096;BME280;25081;42.698;23.298;2022-09-27T06:42:42;94140.41;;;15.38;93.66
6096;BME280;25081;42.698;23.298;2022-09-27T06:44:53;94141.22;;;15.33;94.20
6096;BME280;25081;42.698;23.298;2022-09-27T06:47:04;94150.66;;;15.28;94.09
6096;BME280;25081;42.698;23.298;2022-09-27T06:49:14;94160.41;;;15.01;95.82
6096;BME280;25081;42.698;23.298;2022-09-27T06:51:25;94149.42;;;14.98;96.52
6096;BME280;25081;42.698;23.298;2022-09-27T06:53:36;94155.28;;;15.10;96.94
6096;BME280;25081;42.698;23.298;2022-09-27T06:55:46;94149.13;;;15.07;96.96
6096;BME280;25081;42.698;23.298;2022-09-27T06:57:57;94136.82;;;14.85;97.52
6096;BME280;25081;42.698;23.298;2022-09-27T07:00:26;94128.58;;;14.59;98.77
6096;BME280;25081;42.698;23.298;2022-09-27T07:02:36;94140.39;;;14.50;100.00
6096;BME280;25081;42.698;23.298;2022-09-27T07:04:47;94152.45;;;14.60;100.00
6096;BME280;25081;42.698;23.298;2022-09-27T07:06:58;94163.68;;;14.80;100.00
6096;BME280;25081;42.698;23.298;2022-09-27T07:09:09;94166.58;;;15.02;100.00
6096;BME280;25081;42.698;23.298;2022-09-27T07:11:19;94178.10;;;15.10;99.52
6096;BME280;25081;42.698;23.298;2022-09-27T07:13:30;94159.30;;;15.12;99.51
6096;BME280;25081;42.698;23.298;2022-09-27T07:15:41;94163.58;;;15.13;99.18
6096;BME280;25081;42.698;23.298;2022-09-27T07:17:57;94169.50;;;15.15;98.96
6096;BME280;25081;42.698;23.298;2022-09-27T07:20:08;94157.70;;;15.09;98.23
6096;BME280;25081;42.698;23.298;2022-09-27T07:22:19;94170.60;;;15.02;98.56
6096;BME280;25081;42.698;23.298;2022-09-27T07:24:30;94167.63;;;15.11;99.26
6096;BME280;25081;42.698;23.298;2022-09-27T07:26:41;94173.74;;;15.29;99.44
6096;BME280;25081;42.698;23.298;2022-09-27T07:28:52;94174.81;;;15.31;98.47
6096;BME280;25081;42.698;23.298;2022-09-27T07:31:03;94168.02;;;15.49;98.33
6096;BME280;25081;42.698;23.298;2022-09-27T07:33:13;94177.39;;;15.61;97.62
6096;BME280;25081;42.698;23.298;2022-09-27T07:35:24;94180.27;;;15.78;97.14
6096;BME280;25081;42.698;23.298;2022-09-27T07:37:35;94180.50;;;15.86;95.91
6096;BME280;25081;42.698;23.298;2022-09-27T07:39:45;94175.53;;;16.06;96.12
6096;BME280;25081;42.698;23.298;2022-09-27T07:41:56;94174.73;;;16.06;95.01
6096;BME280;25081;42.698;23.298;2022-09-27T07:44:07;94178.48;;;16.07;94.67
6096;BME280;25081;42.698;23.298;2022-09-27T07:46:18;94171.52;;;16.01;94.07
6096;BME280;25081;42.698;23.298;2022-09-27T07:48:28;94172.82;;;16.09;93.79
6096;BME280;25081;42.698;23.298;2022-09-27T07:50:39;94170.11;;;16.14;93.42
6096;BME280;25081;42.698;23.298;2022-09-27T07:52:50;94183.55;;;16.14;93.50
6096;BME280;25081;42.698;23.298;2022-09-27T07:55:00;94185.27;;;15.97;94.53
6096;BME280;25081;42.698;23.298;2022-09-27T07:57:11;94178.45;;;15.63;95.99
6096;BME280;25081;42.698;23.298;2022-09-27T07:59:22;94178.85;;;15.28;96.56
6096;BME280;25081;42.698;23.298;2022-09-27T08:01:33;94178.55;;;15.32;96.61
6096;BME280;25081;42.698;23.298;2022-09-27T08:03:43;94178.63;;;15.17;97.65
6096;BME280;25081;42.698;23.298;2022-09-27T08:05:54;94165.45;;;15.21;99.06
6096;BME280;25081;42.698;23.298;2022-09-27T08:08:05;94167.61;;;15.18;98.95
6096;BME280;25081;42.698;23.298;2022-09-27T08:10:16;94173.74;;;15.29;99.09
6096;BME280;25081;42.698;23.298;2022-09-27T08:12:26;94159.47;;;15.39;99.28
6096;BME280;25081;42.698;23.298;2022-09-27T08:14:37;94173.14;;;15.42;99.27
6096;BME280;25081;42.698;23.298;2022-09-27T08:16:48;94171.52;;;15.49;99.43
6096;BME280;25081;42.698;23.298;2022-09-27T08:18:58;94164.50;;;15.61;99.49
6096;BME280;25081;42.698;23.298;2022-09-27T08:21:09;94161.81;;;15.61;98.81
6096;BME280;25081;42.698;23.298;2022-09-27T08:23:20;94145.34;;;15.72;98.84
6096;BME280;25081;42.698;23.298;2022-09-27T08:25:31;94152.66;;;15.67;98.08
6096;BME280;25081;42.698;23.298;2022-09-27T08:27:41;94160.67;;;15.72;97.97
6096;BME280;25081;42.698;23.298;2022-09-27T08:29:52;94152.13;;;15.65;98.01
6096;BME280;25081;42.698;23.298;2022-09-27T08:32:03;94151.88;;;15.64;98.20
6096;BME280;25081;42.698;23.298;2022-09-27T08:34:14;94154.72;;;15.80;97.82
6096;BME280;25081;42.698;23.298;2022-09-27T08:36:25;94144.20;;;15.86;97.98
6096;BME280;25081;42.698;23.298;2022-09-27T08:38:36;94120.93;;;16.08;96.72
6096;BME280;25081;42.698;23.298;2022-09-27T08:40:50;94120.93;;;16.08;96.72
6096;BME280;25081;42.698;23.298;2022-09-27T08:43:02;94128.11;;;16.18;95.17
6096;BME280;25081;42.698;23.298;2022-09-27T08:45:14;94122.86;;;16.66;94.17
6096;BME280;25081;42.698;23.298;2022-09-27T08:47:25;94122.86;;;16.66;94.17
6096;BME280;25081;42.698;23.298;2022-09-27T08:49:36;94131.51;;;16.63;93.97
6096;BME280;25081;42.698;23.298;2022-09-27T08:51:47;94115.76;;;17.04;93.80
6096;BME280;25081;42.698;23.298;2022-09-27T08:53:59;94121.17;;;17.68;90.83
6096;BME280;25081;42.698;23.298;2022-09-27T08:56:08;94123.86;;;17.89;88.00
6096;BME280;25081;42.698;23.298;2022-09-27T08:58:22;94123.86;;;17.89;88.00
6096;BME280;25081;42.698;23.298;2022-09-27T09:00:31;94118.30;;;18.18;86.11
6096;BME280;25081;42.698;23.298;2022-09-27T09:02:42;94118.30;;;18.18;86.11
6096;BME280;25081;42.698;23.298;2022-09-27T09:04:53;94113.55;;;18.45;84.70
6096;BME280;25081;42.698;23.298;2022-09-27T09:07:07;94123.30;;;18.76;83.66
6096;BME280;25081;42.698;23.298;2022-09-27T09:09:21;94117.77;;;18.98;83.67
6096;BME280;25081;42.698;23.298;2022-09-27T09:11:36;94120.94;;;19.02;82.27
6096;BME280;25081;42.698;23.298;2022-09-27T09:14:10;94109.91;;;19.54;81.14
6096;BME280;25081;42.698;23.298;2022-09-27T09:16:22;94119.61;;;20.29;78.24
6096;BME280;25081;42.698;23.298;2022-09-27T09:18:41;94115.67;;;21.31;75.65
6096;BME280;25081;42.698;23.298;2022-09-27T09:20:55;94107.02;;;23.52;68.67
6096;BME280;25081;42.698;23.298;2022-09-27T09:26:03;94104.88;;;24.58;60.29
6096;BME280;25081;42.698;23.298;2022-09-27T09:28:18;94110.41;;;25.09;58.55
6096;BME280;25081;42.698;23.298;2022-09-27T09:30:30;94107.44;;;24.42;58.74
6096;BME280;25081;42.698;23.298;2022-09-27T09:32:46;94087.67;;;23.68;60.63
6096;BME280;25081;42.698;23.298;2022-09-27T09:34:56;94090.74;;;23.28;60.34
6096;BME280;25081;42.698;23.298;2022-09-27T09:37:09;94085.92;;;23.49;61.25
6096;BME280;25081;42.698;23.298;2022-09-27T09:39:20;94087.80;;;24.28;61.16
6096;BME280;25081;42.698;23.298;2022-09-27T09:41:30;94083.51;;;25.87;55.97
6096;BME280;25081;42.698;23.298;2022-09-27T09:43:41;94088.74;;;25.74;53.92
6096;BME280;25081;42.698;23.298;2022-09-27T09:45:52;94085.62;;;25.02;55.73
6096;BME280;25081;42.698;23.298;2022-09-27T09:48:04;94092.04;;;26.32;53.12
6096;BME280;25081;42.698;23.298;2022-09-27T09:50:17;94093.08;;;26.40;51.76
6096;BME280;25081;42.698;23.298;2022-09-27T09:52:28;94102.13;;;24.85;55.20
6096;BME280;25081;42.698;23.298;2022-09-27T09:54:39;94092.75;;;24.20;57.74
6096;BME280;25081;42.698;23.298;2022-09-27T09:56:49;94104.23;;;23.69;59.51
6096;BME280;25081;42.698;23.298;2022-09-27T09:59:00;94092.20;;;22.53;64.16
6096;BME280;25081;42.698;23.298;2022-09-27T10:01:16;94091.86;;;23.42;61.09
6096;BME280;25081;42.698;23.298;2022-09-27T10:03:24;94100.16;;;23.69;59.52
6096;BME280;25081;42.698;23.298;2022-09-27T10:05:35;94102.12;;;23.22;60.33
6096;BME280;25081;42.698;23.298;2022-09-27T10:07:46;94096.87;;;22.76;61.56
6096;BME280;25081;42.698;23.298;2022-09-27T10:09:58;94095.81;;;22.51;63.10
6096;BME280;25081;42.698;23.298;2022-09-27T10:12:07;94089.75;;;22.19;63.87
6096;BME280;25081;42.698;23.298;2022-09-27T10:14:18;94084.02;;;21.66;65.91
6096;BME280;25081;42.698;23.298;2022-09-27T10:16:29;94078.32;;;21.48;67.10
6096;BME280;25081;42.698;23.298;2022-09-27T10:18:40;94087.95;;;21.34;66.36
6096;BME280;25081;42.698;23.298;2022-09-27T10:20:51;94075.67;;;21.37;67.53
6096;BME280;25081;42.698;23.298;2022-09-27T10:23:05;94057.74;;;21.47;67.52
6096;BME280;25081;42.698;23.298;2022-09-27T10:25:14;94057.86;;;21.62;67.42
6096;BME280;25081;42.698;23.298;2022-09-27T10:27:25;94057.20;;;22.83;63.86
6096;BME280;25081;42.698;23.298;2022-09-27T10:29:36;94062.05;;;23.16;59.82
6096;BME280;25081;42.698;23.298;2022-09-27T10:31:47;94068.81;;;22.28;62.36
6096;BME280;25081;42.698;23.298;2022-09-27T10:33:58;94058.52;;;22.28;63.64
6096;BME280;25081;42.698;23.298;2022-09-27T10:36:21;94045.09;;;22.49;62.65
6096;BME280;25081;42.698;23.298;2022-09-27T10:38:32;94047.76;;;22.57;62.36
6096;BME280;25081;42.698;23.298;2022-09-27T10:40:43;94060.42;;;21.84;64.08
6096;BME280;25081;42.698;23.298;2022-09-27T10:42:53;94054.88;;;21.43;66.16
6096;BME280;25081;42.698;23.298;2022-09-27T10:45:24;94061.75;;;21.10;67.99
6096;BME280;25081;42.698;23.298;2022-09-27T10:47:34;94060.31;;;20.73;69.24
6096;BME280;25081;42.698;23.298;2022-09-27T10:49:45;94058.67;;;21.14;68.68
6096;BME280;25081;42.698;23.298;2022-09-27T10:51:56;94054.34;;;21.70;66.61
6096;BME280;25081;42.698;23.298;2022-09-27T10:54:14;94045.84;;;23.13;62.75
6096;BME280;25081;42.698;23.298;2022-09-27T10:56:26;94040.32;;;23.31;59.72
6096;BME280;25081;42.698;23.298;2022-09-27T10:58:36;94031.11;;;23.44;59.59
6096;BME280;25081;42.698;23.298;2022-09-27T11:00:55;94023.52;;;23.43;60.37
6096;BME280;25081;42.698;23.298;2022-09-27T11:03:06;94023.50;;;22.12;65.16
6096;BME280;25081;42.698;23.298;2022-09-27T11:05:29;94004.52;;;22.35;62.99
6096;BME280;25081;42.698;23.298;2022-09-27T11:07:27;94007.16;;;22.93;62.74
6096;BME280;25081;42.698;23.298;2022-09-27T11:09:47;94014.53;;;23.37;60.40
6096;BME280;25081;42.698;23.298;2022-09-27T11:12:09;94008.94;;;23.33;60.40
6096;BME280;25081;42.698;23.298;2022-09-27T11:14:21;94007.58;;;23.48;60.83
6096;BME280;25081;42.698;23.298;2022-09-27T11:16:43;94004.07;;;22.80;63.00
6096;BME280;25081;42.698;23.298;2022-09-27T11:18:55;94005.50;;;22.31;63.61
6096;BME280;25081;42.698;23.298;2022-09-27T11:21:09;93990.41;;;21.49;66.88
6096;BME280;25081;42.698;23.298;2022-09-27T11:23:34;94001.51;;;20.84;69.20
6096;BME280;25081;42.698;23.298;2022-09-27T11:25:48;93996.56;;;20.86;69.51
6096;BME280;25081;42.698;23.298;2022-09-27T11:28:01;93996.50;;;20.69;70.30
6096;BME280;25081;42.698;23.298;2022-09-27T11:30:11;93994.14;;;20.45;71.54
6096;BME280;25081;42.698;23.298;2022-09-27T11:32:25;93988.61;;;20.50;71.63
6096;BME280;25081;42.698;23.298;2022-09-27T11:34:51;93991.05;;;21.37;68.01
6096;BME280;25081;42.698;23.298;2022-09-27T11:37:07;93970.00;;;21.69;66.88
6096;BME280;25081;42.698;23.298;2022-09-27T11:39:18;93975.33;;;21.80;66.18
6096;BME280;25081;42.698;23.298;2022-09-27T11:41:35;93969.02;;;21.30;66.42
6096;BME280;25081;42.698;23.298;2022-09-27T11:43:53;93957.70;;;21.28;67.50
6096;BME280;25081;42.698;23.298;2022-09-27T11:46:04;93944.40;;;21.47;67.31
6096;BME280;25081;42.698;23.298;2022-09-27T11:48:20;93948.52;;;21.87;64.92
6096;BME280;25081;42.698;23.298;2022-09-27T11:50:51;93953.92;;;22.05;64.88